sensor_id;sensor_type;location;lat;lon;timestamp;pressure;altitude;pressure_sealevel;temperature;humidity
86388;BME280;77034;44.794;20.518;2024-03-29T00:00:26;98564.88;;;14.36;44.25
86388;BME280;77034;44.794;20.518;2024-03-29T00:02:52;98551.13;;;14.33;45.12
86388;BME280;77034;44.794;20.518;2024-03-29T00:05:17;98565.66;;;14.33;45.29
86388;BME280;77034;44.794;20.518;2024-03-29T00:07:43;98569.97;;;14.23;45.73
86388;BME280;77034;44.794;20.518;2024-03-29T00:10:08;98569.19;;;14.37;44.56
86388;BME280;77034;44.794;20.518;2024-03-29T00:12:34;98574.28;;;14.28;45.08
86388;BME280;77034;44.794;20.518;2024-03-29T00:15:00;98571.94;;;14.37;45.05
86388;BME280;77034;44.794;20.518;2024-03-29T00:17:26;98574.28;;;14.24;45.58
86388;BME280;77034;44.794;20.518;2024-03-29T00:19:51;98577.09;;;14.39;45.34
86388;BME280;77034;44.794;20.518;2024-03-29T00:22:17;98585.34;;;14.42;45.47
86388;BME280;77034;44.794;20.518;2024-03-29T00:24:43;98575.88;;;14.33;45.45
86388;BME280;77034;44.794;20.518;2024-03-29T00:27:09;98588.50;;;14.41;45.69
86388;BME280;77034;44.794;20.518;2024-03-29T00:29:34;98589.28;;;14.41;44.86
86388;BME280;77034;44.794;20.518;2024-03-29T00:32:00;98602.25;;;14.37;46.15
86388;BME280;77034;44.794;20.518;2024-03-29T00:34:25;98595.56;;;14.42;44.80
86388;BME280;77034;44.794;20.518;2024-03-29T00:36:51;98588.97;;;14.54;44.74
86388;BME280;77034;44.794;20.518;2024-03-29T00:39:18;98586.19;;;14.50;45.25
86388;BME280;77034;44.794;20.518;2024-03-29T00:41:43;98591.69;;;14.50;45.46
86388;BME280;77034;44.794;20.518;2024-03-29T00:44:09;98596.44;;;14.60;44.69
86388;BME280;77034;44.794;20.518;2024-03-29T00:46:34;98598.00;;;14.47;44.97
86388;BME280;77034;44.794;20.518;2024-03-29T00:49:00;98603.09;;;14.52;44.67
86388;BME280;77034;44.794;20.518;2024-03-29T00:51:25;98581.50;;;14.58;45.47
86388;BME280;77034;44.794;20.518;2024-03-29T00:53:51;98597.22;;;14.54;45.39
86388;BME280;77034;44.794;20.518;2024-03-29T00:56:17;98594.84;;;14.52;44.56
86388;BME280;77034;44.794;20.518;2024-03-29T00:58:43;98601.94;;;14.60;44.69
86388;BME280;77034;44.794;20.518;2024-03-29T01:01:08;98609.41;;;14.52;45.70
86388;BME280;77034;44.794;20.518;2024-03-29T01:03:34;98598.03;;;14.54;44.80
86388;BME280;77034;44.794;20.518;2024-03-29T01:05:59;98612.94;;;14.53;45.94
86388;BME280;77034;44.794;20.518;2024-03-29T01:08:25;98608.63;;;14.56;45.58
86388;BME280;77034;44.794;20.518;2024-03-29T01:10:51;98607.47;;;14.64;44.63
86388;BME280;77034;44.794;20.518;2024-03-29T01:13:16;98609.78;;;14.51;44.66
86388;BME280;77034;44.794;20.518;2024-03-29T01:15:42;98610.59;;;14.51;44.74
86388;BME280;77034;44.794;20.518;2024-03-29T01:18:08;98608.94;;;14.43;45.93
86388;BME280;77034;44.794;20.518;2024-03-29T01:20:36;98623.56;;;14.47;45.18
86388;BME280;77034;44.794;20.518;2024-03-29T01:23:01;98623.13;;;14.38;45.36
86388;BME280;77034;44.794;20.518;2024-03-29T01:25:27;98621.50;;;14.34;45.68
86388;BME280;77034;44.794;20.518;2024-03-29T01:27:53;98623.13;;;14.42;45.57
86388;BME280;77034;44.794;20.518;2024-03-29T01:30:18;98625.84;;;14.35;46.41
86388;BME280;77034;44.794;20.518;2024-03-29T01:32:44;98621.50;;;14.34;46.51
86388;BME280;77034;44.794;20.518;2024-03-29T01:35:09;98625.03;;;14.27;46.33
86388;BME280;77034;44.794;20.518;2024-03-29T01:37:35;98638.81;;;14.31;46.65
86388;BME280;77034;44.794;20.518;2024-03-29T01:40:01;98639.53;;;14.20;46.41
86388;BME280;77034;44.794;20.518;2024-03-29T01:42:27;98650.91;;;14.08;46.90
86388;BME280;77034;44.794;20.518;2024-03-29T01:44:52;98660.75;;;14.16;46.84
86388;BME280;77034;44.794;20.518;2024-03-29T01:47:18;98666.22;;;14.13;46.90
86388;BME280;77034;44.794;20.518;2024-03-29T01:49:44;98662.41;;;14.32;46.39
86388;BME280;77034;44.794;20.518;2024-03-29T01:52:12;98676.53;;;14.27;46.59
86388;BME280;77034;44.794;20.518;2024-03-29T01:54:40;98680.47;;;14.29;46.89
86388;BME280;77034;44.794;20.518;2024-03-29T01:57:07;98690.38;;;14.41;45.87
86388;BME280;77034;44.794;20.518;2024-03-29T01:59:32;98684.94;;;14.48;46.69
86388;BME280;77034;44.794;20.518;2024-03-29T02:01:59;98691.56;;;14.40;46.66
86388;BME280;77034;44.794;20.518;2024-03-29T02:04:26;98692.31;;;14.37;46.94
86388;BME280;77034;44.794;20.518;2024-03-29T02:06:52;98699.41;;;14.38;46.54
86388;BME280;77034;44.794;20.518;2024-03-29T02:09:21;98696.63;;;14.34;46.99
86388;BME280;77034;44.794;20.518;2024-03-29T02:11:46;98704.22;;;14.48;46.67
86388;BME280;77034;44.794;20.518;2024-03-29T02:14:12;98700.31;;;14.56;47.04
86388;BME280;77034;44.794;20.518;2024-03-29T02:16:38;98705.72;;;14.42;46.64
86388;BME280;77034;44.794;20.518;2024-03-29T02:19:03;98705.00;;;14.52;46.58
86388;BME280;77034;44.794;20.518;2024-03-29T02:21:31;98708.13;;;14.47;46.45
86388;BME280;77034;44.794;20.518;2024-03-29T02:24:06;98724.69;;;14.54;46.46
86388;BME280;77034;44.794;20.518;2024-03-29T02:26:32;98737.25;;;14.51;46.83
86388;BME280;77034;44.794;20.518;2024-03-29T02:29:01;98739.25;;;14.55;46.30
86388;BME280;77034;44.794;20.518;2024-03-29T02:31:27;98736.47;;;14.47;46.18
86388;BME280;77034;44.794;20.518;2024-03-29T02:33:56;98737.66;;;14.50;47.12
86388;BME280;77034;44.794;20.518;2024-03-29T02:36:21;98757.25;;;14.41;46.81
86388;BME280;77034;44.794;20.518;2024-03-29T02:38:47;98820.97;;;14.40;47.29
86388;BME280;77034;44.794;20.518;2024-03-29T02:41:12;98846.47;;;14.33;48.03
86388;BME280;77034;44.794;20.518;2024-03-29T02:43:38;98841.63;;;14.16;48.67
86388;BME280;77034;44.794;20.518;2024-03-29T02:46:04;98838.63;;;14.35;49.41
86388;BME280;77034;44.794;20.518;2024-03-29T02:48:29;98853.19;;;14.36;48.83
86388;BME280;77034;44.794;20.518;2024-03-29T02:50:55;98884.38;;;14.47;48.76
86388;BME280;77034;44.794;20.518;2024-03-29T02:53:21;98878.78;;;14.40;48.98
86388;BME280;77034;44.794;20.518;2024-03-29T02:55:46;98892.28;;;14.52;47.85
86388;BME280;77034;44.794;20.518;2024-03-29T02:58:12;98897.75;;;14.48;48.38
86388;BME280;77034;44.794;20.518;2024-03-29T03:00:38;98900.03;;;14.43;49.71
86388;BME280;77034;44.794;20.518;2024-03-29T03:03:03;98916.19;;;14.00;51.18
86388;BME280;77034;44.794;20.518;2024-03-29T03:05:29;98920.06;;;12.98;55.99
86388;BME280;77034;44.794;20.518;2024-03-29T03:07:55;98934.09;;;12.67;58.43
86388;BME280;77034;44.794;20.518;2024-03-29T03:10:48;98942.78;;;12.23;60.47
86388;BME280;77034;44.794;20.518;2024-03-29T03:13:28;98939.25;;;11.61;62.85
86388;BME280;77034;44.794;20.518;2024-03-29T03:15:55;98948.81;;;10.93;64.16
86388;BME280;77034;44.794;20.518;2024-03-29T03:18:21;98958.97;;;10.93;64.59
86388;BME280;77034;44.794;20.518;2024-03-29T03:20:53;98964.09;;;10.78;65.08
86388;BME280;77034;44.794;20.518;2024-03-29T03:23:19;98947.09;;;10.38;66.67
86388;BME280;77034;44.794;20.518;2024-03-29T03:25:53;98950.53;;;10.34;66.62
86388;BME280;77034;44.794;20.518;2024-03-29T03:28:18;98972.28;;;10.15;66.27
86388;BME280;77034;44.794;20.518;2024-03-29T03:30:44;98966.06;;;10.02;66.65
86388;BME280;77034;44.794;20.518;2024-03-29T03:33:10;98967.31;;;9.89;67.51
86388;BME280;77034;44.794;20.518;2024-03-29T03:35:35;98972.34;;;10.03;66.86
86388;BME280;77034;44.794;20.518;2024-03-29T03:38:01;98977.47;;;10.04;66.89
86388;BME280;77034;44.794;20.518;2024-03-29T03:40:27;98986.97;;;9.95;67.32
86388;BME280;77034;44.794;20.518;2024-03-29T03:42:53;98980.59;;;9.75;68.05
86388;BME280;77034;44.794;20.518;2024-03-29T03:45:18;98985.50;;;9.69;67.91
86388;BME280;77034;44.794;20.518;2024-03-29T03:47:44;98976.34;;;9.77;67.66
86388;BME280;77034;44.794;20.518;2024-03-29T03:50:09;98980.09;;;9.57;68.91
86388;BME280;77034;44.794;20.518;2024-03-29T03:52:35;98987.44;;;9.69;68.66
86388;BME280;77034;44.794;20.518;2024-03-29T03:55:00;98997.63;;;9.56;69.03
86388;BME280;77034;44.794;20.518;2024-03-29T03:57:26;98998.72;;;9.67;68.44
86388;BME280;77034;44.794;20.518;2024-03-29T03:59:52;99008.28;;;9.61;68.55
86388;BME280;77034;44.794;20.518;2024-03-29T04:02:18;99006.34;;;9.62;68.60
86388;BME280;77034;44.794;20.518;2024-03-29T04:04:47;99008.06;;;9.66;68.82
86388;BME280;77034;44.794;20.518;2024-03-29T04:07:13;99005.19;;;9.75;68.65
86388;BME280;77034;44.794;20.518;2024-03-29T04:09:38;98993.25;;;9.67;68.78
86388;BME280;77034;44.794;20.518;2024-03-29T04:12:04;99000.31;;;9.68;68.50
86388;BME280;77034;44.794;20.518;2024-03-29T04:14:30;99008.94;;;9.70;68.25
86388;BME280;77034;44.794;20.518;2024-03-29T04:16:55;99004.25;;;9.71;68.42
86388;BME280;77034;44.794;20.518;2024-03-29T04:19:21;99014.41;;;9.70;68.29
86388;BME280;77034;44.794;20.518;2024-03-29T04:21:46;99011.59;;;9.67;68.62
86388;BME280;77034;44.794;20.518;2024-03-29T04:24:12;99020.78;;;9.74;68.17
86388;BME280;77034;44.794;20.518;2024-03-29T04:26:38;99008.16;;;9.70;68.07
86388;BME280;77034;44.794;20.518;2024-03-29T04:29:04;99012.81;;;9.69;68.11
86388;BME280;77034;44.794;20.518;2024-03-29T04:31:30;99014.72;;;9.81;68.17
86388;BME280;77034;44.794;20.518;2024-03-29T04:33:56;99009.63;;;9.79;67.99
86388;BME280;77034;44.794;20.518;2024-03-29T04:36:22;99011.53;;;10.07;67.02
86388;BME280;77034;44.794;20.518;2024-03-29T04:38:47;99015.66;;;10.01;67.00
86388;BME280;77034;44.794;20.518;2024-03-29T04:41:13;99011.22;;;10.24;66.67
86388;BME280;77034;44.794;20.518;2024-03-29T04:43:39;99021.66;;;10.66;64.68
86388;BME280;77034;44.794;20.518;2024-03-29T04:46:10;99025.09;;;11.10;62.76
86388;BME280;77034;44.794;20.518;2024-03-29T04:48:41;99035.72;;;11.66;60.19
86388;BME280;77034;44.794;20.518;2024-03-29T04:51:08;99022.19;;;11.93;59.11
86388;BME280;77034;44.794;20.518;2024-03-29T04:53:38;99020.31;;;12.39;58.13
86388;BME280;77034;44.794;20.518;2024-03-29T04:56:04;99031.50;;;12.73;56.35
86388;BME280;77034;44.794;20.518;2024-03-29T04:58:30;99037.50;;;13.05;55.70
86388;BME280;77034;44.794;20.518;2024-03-29T05:00:56;99047.56;;;13.47;53.84
86388;BME280;77034;44.794;20.518;2024-03-29T05:03:22;99050.13;;;13.59;53.54
86388;BME280;77034;44.794;20.518;2024-03-29T05:05:51;99056.31;;;14.16;52.20
86388;BME280;77034;44.794;20.518;2024-03-29T05:08:17;99063.53;;;14.28;50.94
86388;BME280;77034;44.794;20.518;2024-03-29T05:10:48;99056.13;;;15.17;48.22
86388;BME280;77034;44.794;20.518;2024-03-29T05:13:15;99064.53;;;14.12;50.79
86388;BME280;77034;44.794;20.518;2024-03-29T05:15:41;99069.56;;;12.97;54.55
86388;BME280;77034;44.794;20.518;2024-03-29T05:18:07;99059.47;;;11.78;57.96
86388;BME280;77034;44.794;20.518;2024-03-29T05:20:32;99059.78;;;14.84;49.82
86388;BME280;77034;44.794;20.518;2024-03-29T05:22:59;99067.13;;;15.68;45.54
86388;BME280;77034;44.794;20.518;2024-03-29T05:25:25;99067.63;;;12.75;54.31
86388;BME280;77034;44.794;20.518;2024-03-29T05:27:51;99061.13;;;16.53;43.60
86388;BME280;77034;44.794;20.518;2024-03-29T05:30:17;99057.63;;;13.92;51.24
86388;BME280;77034;44.794;20.518;2024-03-29T05:32:43;99051.44;;;12.93;53.50
86388;BME280;77034;44.794;20.518;2024-03-29T05:35:09;99062.81;;;12.26;55.12
86388;BME280;77034;44.794;20.518;2024-03-29T05:37:36;99048.13;;;14.57;50.14
86388;BME280;77034;44.794;20.518;2024-03-29T05:40:02;99065.94;;;16.88;42.07
86388;BME280;77034;44.794;20.518;2024-03-29T05:42:33;99074.56;;;16.55;43.61
86388;BME280;77034;44.794;20.518;2024-03-29T05:45:00;99063.97;;;17.14;41.97
86388;BME280;77034;44.794;20.518;2024-03-29T05:47:25;99059.44;;;18.09;39.99
86388;BME280;77034;44.794;20.518;2024-03-29T05:49:51;99064.56;;;18.84;37.78
86388;BME280;77034;44.794;20.518;2024-03-29T05:52:17;99058.81;;;20.56;33.81
86388;BME280;77034;44.794;20.518;2024-03-29T05:54:43;99066.28;;;19.64;35.73
86388;BME280;77034;44.794;20.518;2024-03-29T05:57:10;99075.47;;;20.25;34.52
86388;BME280;77034;44.794;20.518;2024-03-29T05:59:36;99060.91;;;20.14;35.24
86388;BME280;77034;44.794;20.518;2024-03-29T06:02:02;99070.00;;;20.18;34.06
86388;BME280;77034;44.794;20.518;2024-03-29T06:04:27;99074.03;;;21.25;32.90
86388;BME280;77034;44.794;20.518;2024-03-29T06:07:04;99080.78;;;20.74;32.85
86388;BME280;77034;44.794;20.518;2024-03-29T06:09:30;99066.75;;;22.18;30.87
86388;BME280;77034;44.794;20.518;2024-03-29T06:11:57;99076.13;;;22.08;30.49
86388;BME280;77034;44.794;20.518;2024-03-29T06:14:23;99073.56;;;22.53;30.09
86388;BME280;77034;44.794;20.518;2024-03-29T06:17:07;99072.38;;;21.04;32.08
86388;BME280;77034;44.794;20.518;2024-03-29T06:19:49;99060.81;;;22.16;30.28
86388;BME280;77034;44.794;20.518;2024-03-29T06:22:16;99059.72;;;21.00;32.20
86388;BME280;77034;44.794;20.518;2024-03-29T06:24:42;99064.84;;;23.03;29.04
86388;BME280;77034;44.794;20.518;2024-03-29T06:27:12;99064.53;;;21.89;30.69
86388;BME280;77034;44.794;20.518;2024-03-29T06:29:43;99080.88;;;23.48;27.89
86388;BME280;77034;44.794;20.518;2024-03-29T06:32:08;99075.84;;;23.27;28.76
86388;BME280;77034;44.794;20.518;2024-03-29T06:34:34;99079.31;;;23.63;27.78
86388;BME280;77034;44.794;20.518;2024-03-29T06:37:00;99091.63;;;23.01;28.91
86388;BME280;77034;44.794;20.518;2024-03-29T06:39:25;99095.69;;;24.07;27.41
86388;BME280;77034;44.794;20.518;2024-03-29T06:41:51;99093.41;;;23.89;27.49
86388;BME280;77034;44.794;20.518;2024-03-29T06:44:17;99091.34;;;25.37;24.84
86388;BME280;77034;44.794;20.518;2024-03-29T06:46:43;99091.47;;;26.24;23.54
86388;BME280;77034;44.794;20.518;2024-03-29T06:49:08;99092.84;;;23.49;27.85
86388;BME280;77034;44.794;20.518;2024-03-29T06:51:34;99092.97;;;25.59;25.37
86388;BME280;77034;44.794;20.518;2024-03-29T06:54:00;99105.94;;;25.31;25.88
86388;BME280;77034;44.794;20.518;2024-03-29T06:56:25;99102.19;;;23.26;28.14
86388;BME280;77034;44.794;20.518;2024-03-29T06:58:51;99102.88;;;20.84;33.27
86388;BME280;77034;44.794;20.518;2024-03-29T07:01:16;99111.75;;;21.30;32.42
86388;BME280;77034;44.794;20.518;2024-03-29T07:03:42;99119.47;;;23.04;29.20
86388;BME280;77034;44.794;20.518;2024-03-29T07:06:08;99107.94;;;21.67;31.22
86388;BME280;77034;44.794;20.518;2024-03-29T07:08:33;99128.09;;;22.74;29.70
86388;BME280;77034;44.794;20.518;2024-03-29T07:11:00;99122.53;;;26.30;25.09
86388;BME280;77034;44.794;20.518;2024-03-29T07:13:29;99110.66;;;24.00;27.44
86388;BME280;77034;44.794;20.518;2024-03-29T07:16:00;99122.22;;;26.50;24.28
86388;BME280;77034;44.794;20.518;2024-03-29T07:18:26;99131.47;;;26.59;24.10
86388;BME280;77034;44.794;20.518;2024-03-29T07:20:52;99139.66;;;26.44;24.68
86388;BME280;77034;44.794;20.518;2024-03-29T07:23:18;99134.09;;;27.16;23.29
86388;BME280;77034;44.794;20.518;2024-03-29T07:25:45;99122.03;;;27.65;22.66
86388;BME280;77034;44.794;20.518;2024-03-29T07:28:11;99134.72;;;27.11;23.35
86388;BME280;77034;44.794;20.518;2024-03-29T07:30:41;99129.69;;;25.87;25.06
86388;BME280;77034;44.794;20.518;2024-03-29T07:33:07;99132.97;;;26.73;23.82
86388;BME280;77034;44.794;20.518;2024-03-29T07:35:34;99133.09;;;26.04;24.54
86388;BME280;77034;44.794;20.518;2024-03-29T07:38:00;99127.16;;;26.98;23.50
86388;BME280;77034;44.794;20.518;2024-03-29T07:40:26;99127.09;;;27.88;22.41
86388;BME280;77034;44.794;20.518;2024-03-29T07:42:51;99121.34;;;25.61;25.10
86388;BME280;77034;44.794;20.518;2024-03-29T07:45:17;99121.31;;;25.14;26.18
86388;BME280;77034;44.794;20.518;2024-03-29T07:47:43;99140.41;;;28.06;22.32
86388;BME280;77034;44.794;20.518;2024-03-29T07:50:09;99134.88;;;31.32;17.76
86388;BME280;77034;44.794;20.518;2024-03-29T07:52:35;99127.16;;;26.98;22.95
86388;BME280;77034;44.794;20.518;2024-03-29T07:55:01;99128.31;;;28.51;20.98
86388;BME280;77034;44.794;20.518;2024-03-29T07:57:26;99131.13;;;29.69;20.50
86388;BME280;77034;44.794;20.518;2024-03-29T07:59:52;99138.09;;;29.26;20.63
86388;BME280;77034;44.794;20.518;2024-03-29T08:02:18;99144.50;;;28.93;21.28
86388;BME280;77034;44.794;20.518;2024-03-29T08:04:43;99137.72;;;28.12;22.17
86388;BME280;77034;44.794;20.518;2024-03-29T08:07:10;99128.97;;;30.26;20.07
86388;BME280;77034;44.794;20.518;2024-03-29T08:09:38;99119.16;;;28.75;21.06
86388;BME280;77034;44.794;20.518;2024-03-29T08:12:05;99129.84;;;32.75;16.81
86388;BME280;77034;44.794;20.518;2024-03-29T08:14:31;99145.25;;;30.61;18.48
86388;BME280;77034;44.794;20.518;2024-03-29T08:17:00;99136.16;;;28.20;21.41
86388;BME280;77034;44.794;20.518;2024-03-29T08:19:30;99141.09;;;29.55;19.58
86388;BME280;77034;44.794;20.518;2024-03-29T08:21:55;99147.25;;;32.36;16.52
86388;BME280;77034;44.794;20.518;2024-03-29T08:24:21;99139.63;;;30.76;19.49
86388;BME280;77034;44.794;20.518;2024-03-29T08:26:47;99140.19;;;28.55;20.82
86388;BME280;77034;44.794;20.518;2024-03-29T08:29:12;99151.19;;;30.63;19.00
86388;BME280;77034;44.794;20.518;2024-03-29T08:31:38;99156.53;;;34.06;15.44
86388;BME280;77034;44.794;20.518;2024-03-29T08:34:04;99160.44;;;36.40;13.05
86388;BME280;77034;44.794;20.518;2024-03-29T08:36:29;99145.56;;;33.82;15.67
86388;BME280;77034;44.794;20.518;2024-03-29T08:38:55;99157.66;;;33.77;15.32
86388;BME280;77034;44.794;20.518;2024-03-29T08:41:21;99156.44;;;30.55;18.44
86388;BME280;77034;44.794;20.518;2024-03-29T08:43:47;99146.13;;;30.52;19.28
86388;BME280;77034;44.794;20.518;2024-03-29T08:46:13;99160.03;;;35.22;14.60
86388;BME280;77034;44.794;20.518;2024-03-29T08:48:39;99162.31;;;32.02;17.51
86388;BME280;77034;44.794;20.518;2024-03-29T08:51:08;99161.41;;;31.75;16.86
86388;BME280;77034;44.794;20.518;2024-03-29T08:53:37;99169.00;;;33.34;15.67
86388;BME280;77034;44.794;20.518;2024-03-29T08:56:03;99159.78;;;32.30;17.41
86388;BME280;77034;44.794;20.518;2024-03-29T08:58:29;99148.47;;;30.98;18.05
86388;BME280;77034;44.794;20.518;2024-03-29T09:00:55;99151.44;;;34.38;16.24
86388;BME280;77034;44.794;20.518;2024-03-29T09:03:24;99148.16;;;31.81;17.22
86388;BME280;77034;44.794;20.518;2024-03-29T09:05:51;99147.09;;;33.83;14.88
86388;BME280;77034;44.794;20.518;2024-03-29T09:08:17;99152.41;;;29.70;19.91
86388;BME280;77034;44.794;20.518;2024-03-29T09:10:43;99161.63;;;33.11;16.65
86388;BME280;77034;44.794;20.518;2024-03-29T09:13:09;99159.09;;;32.14;18.31
86388;BME280;77034;44.794;20.518;2024-03-29T09:15:36;99151.97;;;31.99;17.11
86388;BME280;77034;44.794;20.518;2024-03-29T09:18:02;99153.78;;;31.26;18.46
86388;BME280;77034;44.794;20.518;2024-03-29T09:20:35;99145.72;;;30.60;18.71
86388;BME280;77034;44.794;20.518;2024-03-29T09:23:01;99148.09;;;29.84;20.41
86388;BME280;77034;44.794;20.518;2024-03-29T09:25:26;99147.31;;;27.37;22.64
86388;BME280;77034;44.794;20.518;2024-03-29T09:27:52;99139.84;;;29.56;20.50
86388;BME280;77034;44.794;20.518;2024-03-29T09:30:18;99147.09;;;30.94;18.41
86388;BME280;77034;44.794;20.518;2024-03-29T09:32:45;99139.56;;;28.60;21.11
86388;BME280;77034;44.794;20.518;2024-03-29T09:35:11;99136.09;;;28.65;21.57
86388;BME280;77034;44.794;20.518;2024-03-29T09:37:36;99128.94;;;28.55;22.04
86388;BME280;77034;44.794;20.518;2024-03-29T09:40:03;99122.13;;;29.80;19.92
86388;BME280;77034;44.794;20.518;2024-03-29T09:42:32;99123.97;;;27.86;21.66
86388;BME280;77034;44.794;20.518;2024-03-29T09:44:59;99109.44;;;28.15;22.97
86388;BME280;77034;44.794;20.518;2024-03-29T09:47:27;99108.88;;;28.62;21.36
86388;BME280;77034;44.794;20.518;2024-03-29T09:49:53;99106.84;;;27.25;22.41
86388;BME280;77034;44.794;20.518;2024-03-29T09:52:20;99109.91;;;25.91;24.63
86388;BME280;77034;44.794;20.518;2024-03-29T09:54:46;99115.09;;;26.58;22.90
86388;BME280;77034;44.794;20.518;2024-03-29T09:57:12;99115.94;;;26.02;23.95
86388;BME280;77034;44.794;20.518;2024-03-29T09:59:42;99120.81;;;25.88;24.30
86388;BME280;77034;44.794;20.518;2024-03-29T10:02:17;99108.94;;;26.06;24.60
86388;BME280;77034;44.794;20.518;2024-03-29T10:04:48;99116.03;;;25.16;24.57
86388;BME280;77034;44.794;20.518;2024-03-29T10:07:15;99112.81;;;26.22;24.67
86388;BME280;77034;44.794;20.518;2024-03-29T10:09:45;99106.59;;;24.59;26.32
86388;BME280;77034;44.794;20.518;2024-03-29T10:12:10;99117.13;;;25.31;25.56
86388;BME280;77034;44.794;20.518;2024-03-29T10:14:50;99116.53;;;25.97;24.78
86388;BME280;77034;44.794;20.518;2024-03-29T10:17:19;99116.03;;;24.91;25.37
86388;BME280;77034;44.794;20.518;2024-03-29T10:19:45;99108.75;;;23.97;26.65
86388;BME280;77034;44.794;20.518;2024-03-29T10:22:11;99106.56;;;24.46;26.74
86388;BME280;77034;44.794;20.518;2024-03-29T10:24:38;99109.09;;;25.08;26.17
86388;BME280;77034;44.794;20.518;2024-03-29T10:27:04;99118.16;;;25.25;25.28
86388;BME280;77034;44.794;20.518;2024-03-29T10:29:30;99111.03;;;24.57;26.98
86388;BME280;77034;44.794;20.518;2024-03-29T10:31:56;99103.78;;;24.59;26.48
86388;BME280;77034;44.794;20.518;2024-03-29T10:34:22;99103.59;;;23.95;27.31
86388;BME280;77034;44.794;20.518;2024-03-29T10:36:49;99110.06;;;23.63;27.49
86388;BME280;77034;44.794;20.518;2024-03-29T10:39:16;99089.38;;;23.90;27.24
86388;BME280;77034;44.794;20.518;2024-03-29T10:41:45;99113.44;;;23.55;27.44
86388;BME280;77034;44.794;20.518;2024-03-29T10:44:12;99094.66;;;24.01;27.11
86388;BME280;77034;44.794;20.518;2024-03-29T10:46:39;99095.84;;;24.96;25.67
86388;BME280;77034;44.794;20.518;2024-03-29T10:49:09;99098.09;;;25.01;24.99
86388;BME280;77034;44.794;20.518;2024-03-29T10:51:39;99102.13;;;24.74;24.01
86388;BME280;77034;44.794;20.518;2024-03-29T10:54:09;99098.06;;;24.50;24.08
86388;BME280;77034;44.794;20.518;2024-03-29T10:56:36;99098.09;;;25.01;23.23
86388;BME280;77034;44.794;20.518;2024-03-29T10:59:17;99101.16;;;25.54;22.92
86388;BME280;77034;44.794;20.518;2024-03-29T11:01:51;99091.94;;;24.93;24.16
86388;BME280;77034;44.794;20.518;2024-03-29T11:04:22;99089.59;;;24.66;25.12
86388;BME280;77034;44.794;20.518;2024-03-29T11:06:51;99089.56;;;24.92;24.72
86388;BME280;77034;44.794;20.518;2024-03-29T11:09:20;99080.03;;;24.38;24.99
86388;BME280;77034;44.794;20.518;2024-03-29T11:11:50;99092.50;;;24.75;25.19
86388;BME280;77034;44.794;20.518;2024-03-29T11:14:20;99073.72;;;23.63;25.43
86388;BME280;77034;44.794;20.518;2024-03-29T11:16:49;99081.25;;;24.08;25.85
86388;BME280;77034;44.794;20.518;2024-03-29T11:19:20;99077.41;;;24.31;25.33
86388;BME280;77034;44.794;20.518;2024-03-29T11:21:46;99073.56;;;24.12;25.12
86388;BME280;77034;44.794;20.518;2024-03-29T11:24:17;99068.56;;;23.91;25.12
86388;BME280;77034;44.794;20.518;2024-03-29T11:26:45;99071.09;;;24.14;25.13
86388;BME280;77034;44.794;20.518;2024-03-29T11:29:21;99075.72;;;23.92;25.22
86388;BME280;77034;44.794;20.518;2024-03-29T11:31:47;99073.34;;;25.59;23.54
86388;BME280;77034;44.794;20.518;2024-03-29T11:34:19;99069.41;;;24.46;24.08
86388;BME280;77034;44.794;20.518;2024-03-29T11:36:45;99063.59;;;24.53;23.64
86388;BME280;77034;44.794;20.518;2024-03-29T11:39:20;99064.50;;;24.75;24.23
86388;BME280;77034;44.794;20.518;2024-03-29T11:41:50;99064.84;;;24.65;24.17
86388;BME280;77034;44.794;20.518;2024-03-29T11:44:16;99060.66;;;24.95;23.61
86388;BME280;77034;44.794;20.518;2024-03-29T11:46:43;99046.72;;;23.57;25.07
86388;BME280;77034;44.794;20.518;2024-03-29T11:49:09;99049.84;;;23.59;25.45
86388;BME280;77034;44.794;20.518;2024-03-29T11:51:35;99053.53;;;24.14;24.71
86388;BME280;77034;44.794;20.518;2024-03-29T11:54:01;99050.78;;;24.27;24.32
86388;BME280;77034;44.794;20.518;2024-03-29T11:56:28;99037.59;;;25.03;24.59
86388;BME280;77034;44.794;20.518;2024-03-29T11:58:53;99046.44;;;25.02;23.53
86388;BME280;77034;44.794;20.518;2024-03-29T12:01:26;99040.63;;;25.22;24.49
86388;BME280;77034;44.794;20.518;2024-03-29T12:03:52;99033.69;;;24.37;23.89
86388;BME280;77034;44.794;20.518;2024-03-29T12:06:19;99024.41;;;23.86;23.86
86388;BME280;77034;44.794;20.518;2024-03-29T12:08:45;99029.88;;;23.60;25.44
86388;BME280;77034;44.794;20.518;2024-03-29T12:11:10;99028.19;;;23.79;24.67
86388;BME280;77034;44.794;20.518;2024-03-29T12:13:36;99013.25;;;23.40;25.43
86388;BME280;77034;44.794;20.518;2024-03-29T12:16:02;99015.19;;;23.56;24.97
86388;BME280;77034;44.794;20.518;2024-03-29T12:18:28;99008.88;;;23.68;24.58
86388;BME280;77034;44.794;20.518;2024-03-29T12:20:57;99021.56;;;23.57;25.17
86388;BME280;77034;44.794;20.518;2024-03-29T12:23:23;99016.50;;;23.68;24.42
86388;BME280;77034;44.794;20.518;2024-03-29T12:25:50;99010.41;;;23.86;24.56
86388;BME280;77034;44.794;20.518;2024-03-29T12:28:17;99010.13;;;23.67;24.34
86388;BME280;77034;44.794;20.518;2024-03-29T12:30:47;99008.34;;;23.74;24.06
86388;BME280;77034;44.794;20.518;2024-03-29T12:35:42;99000.13;;;23.37;23.87
86388;BME280;77034;44.794;20.518;2024-03-29T12:38:14;98991.03;;;23.04;24.26
86388;BME280;77034;44.794;20.518;2024-03-29T12:40:41;98989.00;;;23.66;24.43
86388;BME280;77034;44.794;20.518;2024-03-29T12:43:09;98992.94;;;23.82;24.26
86388;BME280;77034;44.794;20.518;2024-03-29T12:45:36;98984.88;;;23.71;24.30
86388;BME280;77034;44.794;20.518;2024-03-29T12:48:02;98984.81;;;23.87;24.54
86388;BME280;77034;44.794;20.518;2024-03-29T12:50:30;98985.59;;;23.88;24.19